Time;durP1;ratioP1;P1;durP2;ratioP2;P2;SDS_P1;SDS_P2;PMS_P1;PMS_P2;Temp;Humidity;BMP_temperature;BMP_pressure;BME280_temperature;BME280_humidity;BME280_pressure;Samples;Min_cycle;Max_cycle;Signal;HPM_P1;HPM_P2
2023/01/23 00:00:25;;;;;;;13.50;9.13;;;;;;;0.68;52.46;96783.09;5070000;28;20468;-69
2023/01/23 00:02:51;;;;;;;19.70;13.10;;;;;;;0.72;53.17;96781.97;5070065;28;20112;-68
2023/01/23 00:05:16;;;;;;;19.98;12.80;;;;;;;0.72;54.40;96788.03;5065120;28;20085;-68
2023/01/23 00:07:42;;;;;;;16.60;10.30;;;;;;;0.61;53.58;96782.56;5068987;28;20333;-68
2023/01/23 00:10:08;;;;;;;17.02;10.95;;;;;;;0.72;53.31;96784.59;5069247;28;20123;-68
2023/01/23 00:12:33;;;;;;;14.75;10.63;;;;;;;0.71;53.50;96788.97;5069103;28;20478;-68
2023/01/23 00:14:59;;;;;;;15.65;9.65;;;;;;;0.73;52.83;96788.91;5070075;28;20094;-68
2023/01/23 00:17:26;;;;;;;19.90;12.35;;;;;;;0.87;53.87;96780.25;5069211;28;20082;-69
2023/01/23 00:19:54;;;;;;;18.02;12.10;;;;;;;0.85;53.75;96790.81;5064824;28;20099;-69
2023/01/23 00:22:20;;;;;;;17.58;12.02;;;;;;;0.94;53.51;96799.06;5067229;28;20074;-68
2023/01/23 00:24:45;;;;;;;20.92;11.63;;;;;;;0.93;53.79;96782.53;5065243;28;20092;-68
2023/01/23 00:27:10;;;;;;;19.73;12.88;;;;;;;0.99;53.76;96791.81;5068359;28;20106;-69
2023/01/23 00:29:36;;;;;;;18.63;11.95;;;;;;;1.00;53.61;96782.16;5065400;28;20067;-68
2023/01/23 00:32:01;;;;;;;15.55;9.85;;;;;;;0.97;53.00;96780.56;5071065;28;20625;-68
2023/01/23 00:34:27;;;;;;;16.30;11.07;;;;;;;0.94;53.12;96783.34;5061247;28;20077;-68
2023/01/23 00:36:52;;;;;;;17.80;12.02;;;;;;;0.82;52.63;96785.75;5071894;28;20064;-69
2023/01/23 00:39:18;;;;;;;18.80;12.40;;;;;;;0.94;53.14;96784.19;5066332;28;20102;-68
2023/01/23 00:41:45;;;;;;;15.07;9.40;;;;;;;0.84;51.86;96791.75;5067697;28;20570;-68
2023/01/23 00:44:10;;;;;;;16.38;10.57;;;;;;;0.91;54.12;96789.63;5064977;28;20094;-69
2023/01/23 00:46:36;;;;;;;18.70;12.32;;;;;;;0.95;53.43;96791.13;5066776;28;20084;-68
2023/01/23 00:49:01;;;;;;;13.88;9.35;;;;;;;0.73;50.78;96783.66;5067867;28;20073;-68
2023/01/23 00:51:26;;;;;;;16.88;10.73;;;;;;;0.77;53.10;96795.66;5062576;28;20140;-68
2023/01/23 00:53:52;;;;;;;15.70;9.85;;;;;;;0.87;51.73;96792.50;5074899;28;20551;-69
2023/01/23 00:56:17;;;;;;;12.90;8.52;;;;;;;0.87;51.14;96782.84;5075002;28;20104;-69
2023/01/23 00:58:43;;;;;;;12.07;8.13;;;;;;;0.60;52.30;96793.97;5068281;28;20249;-69
2023/01/23 01:01:08;;;;;;;11.93;7.32;;;;;;;0.75;50.43;96787.00;5067874;28;20528;-68
2023/01/23 01:03:34;;;;;;;11.95;7.53;;;;;;;0.62;50.42;96793.91;5064412;28;20151;-69
2023/01/23 01:05:59;;;;;;;16.88;10.05;;;;;;;0.73;51.37;96797.59;5066031;28;20077;-69
2023/01/23 01:08:24;;;;;;;13.20;8.57;;;;;;;0.67;52.05;96791.84;5071376;28;20165;-68
2023/01/23 01:10:50;;;;;;;13.60;8.57;;;;;;;0.77;52.86;96798.28;5073199;28;20511;-69
2023/01/23 01:13:20;;;;;;;14.27;9.32;;;;;;;0.68;52.19;96794.38;5068790;28;20074;-68
2023/01/23 01:15:46;;;;;;;15.18;9.02;;;;;;;0.60;50.77;96801.84;5068011;28;20177;-68
2023/01/23 01:18:12;;;;;;;12.70;8.52;;;;;;;0.49;52.43;96804.22;5070529;28;20516;-68
2023/01/23 01:20:39;;;;;;;11.52;7.35;;;;;;;0.30;50.49;96805.22;5069021;28;20096;-69
2023/01/23 01:23:05;;;;;;;17.10;10.13;;;;;;;0.59;52.56;96806.22;5071739;28;20164;-69
2023/01/23 01:25:30;;;;;;;11.85;7.60;;;;;;;0.42;50.69;96798.47;5076756;28;20081;-69
2023/01/23 01:27:55;;;;;;;16.55;10.75;;;;;;;0.61;52.25;96807.94;5076461;28;20098;-68
2023/01/23 01:30:21;;;;;;;15.05;9.73;;;;;;;0.65;53.88;96804.22;5071829;28;20079;-69
2023/01/23 01:32:46;;;;;;;13.15;9.07;;;;;;;0.58;51.11;96807.16;5070178;28;20072;-69
2023/01/23 01:35:12;;;;;;;16.80;9.77;;;;;;;0.69;52.44;96803.09;5070616;28;20476;-69
2023/01/23 01:37:38;;;;;;;16.17;9.15;;;;;;;0.46;51.31;96807.84;5074181;28;20099;-69
2023/01/23 01:40:09;;;;;;;14.05;9.65;;;;;;;0.54;52.11;96808.28;5069371;28;20085;-69
2023/01/23 01:42:58;;;;;;;13.10;8.65;;;;;;;0.50;51.51;96814.63;5070366;28;20116;-69
2023/01/23 01:46:01;;;;;;;13.43;8.55;;;;;;;0.46;50.72;96811.34;5065869;28;20522;-68
2023/01/23 01:48:31;;;;;;;14.32;9.27;;;;;;;0.55;53.24;96809.97;5070286;28;20191;-69
2023/01/23 01:50:56;;;;;;;12.20;7.70;;;;;;;0.55;53.94;96807.34;5066946;28;20549;-69
2023/01/23 01:53:22;;;;;;;13.95;8.82;;;;;;;0.39;52.24;96814.38;5055159;28;20082;-68
2023/01/23 01:55:47;;;;;;;13.40;8.48;;;;;;;0.44;51.77;96814.94;5055830;28;20106;-69
2023/01/23 01:58:13;;;;;;;14.35;9.70;;;;;;;0.56;54.57;96816.06;5068149;28;20528;-68
2023/01/23 02:00:38;;;;;;;14.15;9.07;;;;;;;0.69;53.24;96813.59;5071302;28;20104;-68
2023/01/23 02:03:04;;;;;;;13.50;9.18;;;;;;;0.71;53.65;96819.59;5069978;28;20095;-68
2023/01/23 02:05:32;;;;;;;14.50;9.35;;;;;;;0.83;53.42;96824.16;5057685;28;20490;-68
2023/01/23 02:08:14;;;;;;;12.52;8.02;;;;;;;0.76;53.47;96830.69;5068068;28;20106;-68
2023/01/23 02:10:40;;;;;;;10.75;6.95;;;;;;;0.69;52.77;96834.56;5063802;28;20194;-68
2023/01/23 02:13:38;;;;;;;12.63;8.35;;;;;;;0.75;52.43;96826.34;5068596;28;20144;-68
2023/01/23 02:16:17;;;;;;;12.13;7.85;;;;;;;0.77;52.58;96828.88;5064816;28;20096;-68
2023/01/23 02:18:46;;;;;;;9.20;6.07;;;;;;;0.50;50.57;96838.22;5055757;28;20117;-68
2023/01/23 02:21:11;;;;;;;12.45;7.93;;;;;;;0.77;53.61;96837.59;5061287;28;20078;-68
2023/01/23 02:23:53;;;;;;;11.38;7.80;;;;;;;0.76;53.03;96837.69;5056176;28;20101;-68
2023/01/23 02:26:31;;;;;;;12.05;8.07;;;;;;;0.85;53.68;96838.00;5066015;28;20081;-68
2023/01/23 02:28:58;;;;;;;13.85;8.73;;;;;;;0.82;52.91;96845.22;5071623;28;20425;-69
2023/01/23 02:31:23;;;;;;;6.97;4.55;;;;;;;0.24;51.00;96835.22;5069109;28;20103;-69
2023/01/23 02:33:53;;;;;;;10.88;7.65;;;;;;;0.27;54.52;96845.53;5076201;28;20122;-68
2023/01/23 02:36:22;;;;;;;11.82;7.80;;;;;;;0.58;52.63;96840.41;5073427;28;20086;-69
2023/01/23 02:39:05;;;;;;;10.80;7.03;;;;;;;0.75;52.02;96842.06;5072524;28;20101;-68
2023/01/23 02:41:36;;;;;;;9.88;6.53;;;;;;;0.94;52.92;96839.28;5068126;28;20069;-68
2023/01/23 02:44:11;;;;;;;11.73;6.97;;;;;;;1.02;52.88;96841.44;5072504;28;20126;-68
2023/01/23 02:46:37;;;;;;;8.18;5.82;;;;;;;0.76;50.92;96841.16;5052258;28;20121;-69
2023/01/23 02:49:02;;;;;;;10.38;6.97;;;;;;;0.78;52.67;96847.16;5073187;28;20382;-69
2023/01/23 02:51:28;;;;;;;9.85;6.35;;;;;;;0.83;51.91;96849.53;5075813;28;20094;-68
2023/01/23 02:53:53;;;;;;;11.00;7.30;;;;;;;0.81;52.32;96846.13;5074600;28;20084;-69
2023/01/23 02:56:19;;;;;;;9.80;6.88;;;;;;;0.89;53.25;96846.53;5070683;28;20102;-68
2023/01/23 03:01:28;;;;;;;9.90;6.85;;;;;;;0.78;52.86;96849.78;5069182;28;20111;-68
2023/01/23 03:03:56;;;;;;;8.63;6.13;;;;;;;0.74;53.29;96848.25;5065571;28;20103;-69
2023/01/23 03:06:22;;;;;;;9.90;7.15;;;;;;;0.68;51.93;96846.00;5064591;28;20481;-68
2023/01/23 03:08:48;;;;;;;12.00;6.85;;;;;;;0.94;52.94;96852.38;5071963;28;20119;-69
2023/01/23 03:11:15;;;;;;;7.43;4.85;;;;;;;0.63;48.89;96853.25;5067036;28;20149;-69
2023/01/23 03:13:40;;;;;;;7.80;5.00;;;;;;;0.55;50.21;96851.88;5055517;28;20510;-69
2023/01/23 03:16:06;;;;;;;7.43;5.53;;;;;;;0.71;51.38;96851.03;5067464;28;20096;-68
2023/01/23 03:18:32;;;;;;;9.38;4.65;;;;;;;0.52;50.35;96856.47;5068418;28;20553;-69
2023/01/23 03:21:04;;;;;;;10.63;6.60;;;;;;;0.75;51.27;96863.03;5073547;28;20088;-69
2023/01/23 03:23:29;;;;;;;6.57;4.60;;;;;;;0.83;52.40;96855.63;5067976;28;20233;-69
2023/01/23 03:25:57;;;;;;;7.57;4.93;;;;;;;0.77;51.83;96861.19;5066202;28;20074;-68
2023/01/23 03:31:12;;;;;;;8.60;5.63;;;;;;;0.61;51.12;96869.06;5070974;28;20146;-69
2023/01/23 03:33:38;;;;;;;9.35;5.97;;;;;;;0.61;53.51;96860.38;5068296;28;20535;-69
2023/01/23 03:36:07;;;;;;;7.40;5.05;;;;;;;0.42;51.82;96861.38;5069547;28;20430;-69
2023/01/23 03:38:32;;;;;;;7.22;5.05;;;;;;;0.52;50.74;96864.34;5071270;28;20529;-69
2023/01/23 03:43:41;;;;;;;7.60;4.82;;;;;;;0.51;51.96;96855.59;5070004;28;20152;-69
2023/01/23 03:46:06;;;;;;;7.10;4.55;;;;;;;0.47;49.19;96856.72;5074817;28;20520;-69
2023/01/23 03:48:32;;;;;;;7.40;4.72;;;;;;;0.44;49.68;96860.34;5075903;28;20111;-69
2023/01/23 03:50:57;;;;;;;9.48;5.35;;;;;;;0.46;51.97;96858.50;5075009;28;20090;-69
2023/01/23 03:53:23;;;;;;;8.70;5.75;;;;;;;0.35;52.90;96855.63;5073397;28;20393;-68
2023/01/23 03:55:49;;;;;;;5.35;3.83;;;;;;;0.08;51.58;96857.00;5062016;28;20112;-69
2023/01/23 03:58:14;;;;;;;5.30;3.40;;;;;;;0.11;50.58;96852.53;5063166;28;20111;-69
2023/01/23 04:00:40;;;;;;;4.30;3.28;;;;;;;-0.04;49.22;96855.03;5070805;28;20106;-69
2023/01/23 04:03:05;;;;;;;7.13;4.60;;;;;;;-0.02;50.77;96857.56;5064743;28;20237;-68
2023/01/23 04:05:31;;;;;;;6.30;4.20;;;;;;;0.20;51.38;96852.03;5068801;28;20091;-68
2023/01/23 04:07:56;;;;;;;4.82;3.63;;;;;;;0.18;51.95;96846.03;5069116;28;20111;-69
2023/01/23 04:10:21;;;;;;;6.63;4.35;;;;;;;0.10;52.49;96854.31;5069491;28;20079;-69
2023/01/23 04:12:47;;;;;;;6.28;4.15;;;;;;;0.00;50.25;96861.81;5070378;28;20135;-69
2023/01/23 04:15:12;;;;;;;8.15;4.60;;;;;;;0.19;53.25;96861.69;5067833;28;20397;-69
2023/01/23 04:17:38;;;;;;;6.43;4.47;;;;;;;0.17;52.17;96855.66;5072223;28;20530;-69
2023/01/23 04:20:05;;;;;;;5.63;3.67;;;;;;;-0.14;51.77;96866.94;5072968;28;20108;-68
2023/01/23 04:22:30;;;;;;;6.15;4.28;;;;;;;0.08;52.73;96864.84;5067442;28;20083;-69
2023/01/23 04:24:55;;;;;;;7.00;4.68;;;;;;;0.23;53.20;96869.34;5067804;28;20074;-69
2023/01/23 04:27:21;;;;;;;6.43;4.50;;;;;;;0.36;53.48;96867.78;5068968;28;20180;-69
2023/01/23 04:29:46;;;;;;;6.90;4.80;;;;;;;0.29;53.83;96875.13;5069628;28;20084;-68
2023/01/23 04:32:12;;;;;;;7.78;5.07;;;;;;;0.36;53.69;96877.41;5065402;28;20550;-68
2023/01/23 04:34:37;;;;;;;6.35;4.63;;;;;;;0.33;53.40;96876.66;5066138;28;20588;-69
2023/01/23 04:37:03;;;;;;;4.40;3.03;;;;;;;-0.20;51.88;96874.16;5062317;28;20083;-69
2023/01/23 04:39:29;;;;;;;7.35;4.68;;;;;;;0.09;52.92;96873.56;5062634;28;20108;-69
2023/01/23 04:41:55;;;;;;;5.88;4.38;;;;;;;0.13;51.81;96871.63;5073598;28;20122;-69
2023/01/23 04:44:20;;;;;;;7.05;4.40;;;;;;;0.40;54.41;96873.69;5077086;28;20098;-69
2023/01/23 04:46:48;;;;;;;6.60;4.70;;;;;;;0.14;53.20;96878.56;5071187;28;20096;-69
2023/01/23 04:49:14;;;;;;;6.72;4.50;;;;;;;0.34;52.80;96878.34;5058157;28;20540;-69
2023/01/23 04:51:39;;;;;;;6.47;4.50;;;;;;;0.39;52.57;96885.09;5072513;28;20097;-69
2023/01/23 04:54:05;;;;;;;5.75;4.35;;;;;;;0.41;52.40;96880.66;5074300;28;20120;-69
2023/01/23 04:56:30;;;;;;;5.70;4.18;;;;;;;0.53;52.31;96884.34;5071970;28;20184;-69
2023/01/23 04:58:55;;;;;;;6.03;4.10;;;;;;;0.44;50.40;96875.22;5075704;28;20088;-70
2023/01/23 05:01:22;;;;;;;4.85;3.70;;;;;;;0.32;52.12;96877.59;5072010;28;20516;-69
2023/01/23 05:03:51;;;;;;;5.78;4.00;;;;;;;0.30;49.46;96878.59;5074717;28;20173;-69
2023/01/23 05:06:16;;;;;;;7.50;3.92;;;;;;;0.38;52.41;96878.19;5068808;28;20169;-68
2023/01/23 05:08:41;;;;;;;5.75;4.10;;;;;;;0.36;51.21;96874.78;5075149;28;20490;-69
2023/01/23 05:11:07;;;;;;;6.25;4.18;;;;;;;0.42;51.75;96871.84;5074421;28;20101;-69
2023/01/23 05:13:32;;;;;;;5.82;4.07;;;;;;;0.41;51.54;96873.63;5075468;28;20079;-69
2023/01/23 05:15:57;;;;;;;4.85;3.92;;;;;;;0.42;52.64;96877.09;5073918;28;20615;-69
2023/01/23 05:18:23;;;;;;;6.32;4.50;;;;;;;0.60;53.67;96877.84;5073415;28;20073;-69
2023/01/23 05:20:48;;;;;;;5.70;4.15;;;;;;;0.55;53.45;96875.47;5069918;28;20547;-69
2023/01/23 05:23:14;;;;;;;5.68;3.90;;;;;;;0.54;51.95;96871.19;5076719;28;20097;-69
2023/01/23 05:25:39;;;;;;;5.38;4.13;;;;;;;0.63;52.93;96864.59;5076268;28;20079;-69
2023/01/23 05:28:04;;;;;;;5.28;3.83;;;;;;;0.66;53.53;96863.56;5071576;28;20479;-69
2023/01/23 05:30:30;;;;;;;5.47;3.97;;;;;;;0.75;52.65;96872.72;5075131;28;20292;-69
2023/01/23 05:32:55;;;;;;;5.78;4.10;;;;;;;0.44;52.02;96862.97;5075324;28;20101;-69
2023/01/23 05:35:21;;;;;;;6.20;4.22;;;;;;;0.63;53.97;96863.72;5074052;28;20560;-69
2023/01/23 05:37:50;;;;;;;5.13;3.63;;;;;;;0.59;51.04;96866.50;5073940;28;20097;-69
2023/01/23 05:40:15;;;;;;;6.00;4.10;;;;;;;0.64;53.41;96868.91;5069815;28;20104;-69
2023/01/23 05:42:41;;;;;;;6.93;4.13;;;;;;;0.66;50.31;96869.66;5066111;28;20103;-69
2023/01/23 05:45:06;;;;;;;6.20;4.25;;;;;;;0.74;51.76;96863.97;5069589;28;20481;-69
2023/01/23 05:47:32;;;;;;;6.03;4.22;;;;;;;0.76;53.54;96863.91;5071610;28;20533;-69
2023/01/23 05:49:57;;;;;;;6.38;4.40;;;;;;;0.76;51.46;96869.16;5074040;28;20582;-69
2023/01/23 05:52:23;;;;;;;6.50;4.30;;;;;;;0.88;52.64;96868.47;5071256;28;20282;-69
2023/01/23 05:54:49;;;;;;;5.90;3.95;;;;;;;0.70;52.93;96876.44;5074541;28;20095;-69
2023/01/23 05:57:14;;;;;;;6.65;4.38;;;;;;;0.70;52.39;96879.06;5072874;28;20206;-69
2023/01/23 05:59:40;;;;;;;6.80;4.50;;;;;;;0.91;51.70;96878.78;5069123;28;20134;-69
2023/01/23 06:02:05;;;;;;;5.57;3.95;;;;;;;0.90;51.71;96884.97;5071509;28;20080;-69
2023/01/23 06:04:30;;;;;;;6.18;4.00;;;;;;;0.86;52.15;96888.69;5075615;28;20650;-69
2023/01/23 06:06:56;;;;;;;5.22;4.10;;;;;;;1.02;52.84;96901.78;5071953;28;20159;-69
2023/01/23 06:09:22;;;;;;;5.40;4.20;;;;;;;0.96;52.09;96912.63;5072897;28;20078;-69
2023/01/23 06:11:47;;;;;;;5.22;4.07;;;;;;;0.89;49.56;96911.28;5070196;28;20170;-69
2023/01/23 06:14:13;;;;;;;4.90;3.75;;;;;;;0.77;52.20;96913.63;5073636;28;20076;-69
2023/01/23 06:16:38;;;;;;;5.28;3.92;;;;;;;0.81;52.06;96915.16;5073467;28;20172;-69
2023/01/23 06:19:03;;;;;;;4.72;3.60;;;;;;;0.59;50.00;96916.31;5070421;28;20189;-69
2023/01/23 06:21:29;;;;;;;5.40;3.92;;;;;;;0.80;52.10;96923.09;5072630;28;20617;-69
2023/01/23 06:23:54;;;;;;;5.88;3.85;;;;;;;0.67;51.62;96925.53;5069580;28;20104;-69
2023/01/23 06:26:20;;;;;;;5.78;3.88;;;;;;;0.39;52.55;96929.66;5065712;28;20118;-69
2023/01/23 06:28:45;;;;;;;5.13;3.70;;;;;;;0.10;49.71;96916.34;5079135;28;20100;-69
2023/01/23 06:31:11;;;;;;;5.85;3.95;;;;;;;0.31;53.11;96917.81;5078269;28;20652;-69
2023/01/23 06:33:36;;;;;;;3.75;2.92;;;;;;;-0.27;50.44;96917.28;5079368;28;20072;-69
2023/01/23 06:36:03;;;;;;;3.88;3.05;;;;;;;-0.37;49.88;96921.31;5077093;28;20100;-69
2023/01/23 06:38:29;;;;;;;3.67;2.92;;;;;;;-0.49;50.61;96923.59;5068644;28;20128;-69
2023/01/23 06:40:54;;;;;;;3.38;2.80;;;;;;;-0.59;51.44;96933.69;5063437;28;20363;-69
2023/01/23 06:43:20;;;;;;;4.93;3.50;;;;;;;-0.33;52.97;96938.53;5061813;28;20116;-69
2023/01/23 06:45:46;;;;;;;3.80;3.15;;;;;;;-0.26;53.63;96941.69;5062112;28;20102;-69
2023/01/23 06:48:11;;;;;;;4.22;3.30;;;;;;;-0.45;51.58;96945.22;5068952;28;20114;-69
2023/01/23 06:50:37;;;;;;;4.75;3.28;;;;;;;-0.49;51.62;96944.53;5068667;28;20100;-69
2023/01/23 06:53:04;;;;;;;5.10;3.22;;;;;;;-0.58;53.76;96950.22;5066852;28;20090;-69
2023/01/23 06:55:29;;;;;;;5.07;3.65;;;;;;;-0.18;54.32;96956.09;5073561;28;20664;-69
2023/01/23 06:57:55;;;;;;;5.22;3.75;;;;;;;0.04;54.19;96965.47;5068968;28;20341;-69
2023/01/23 07:00:21;;;;;;;5.05;3.90;;;;;;;0.07;53.05;96961.84;5070701;28;20104;-69
2023/01/23 07:02:46;;;;;;;6.55;4.05;;;;;;;0.32;54.61;96952.72;5073399;28;20120;-69
2023/01/23 07:05:11;;;;;;;8.05;4.63;;;;;;;0.10;53.39;96958.25;5072088;28;20422;-69
2023/01/23 07:07:37;;;;;;;5.18;3.72;;;;;;;0.29;52.75;96969.44;5071832;28;20099;-69
2023/01/23 07:10:03;;;;;;;5.25;3.70;;;;;;;0.43;51.87;96968.72;5067405;28;20486;-69
2023/01/23 07:12:28;;;;;;;5.85;3.60;;;;;;;0.52;53.04;96964.78;5069771;28;20201;-69
2023/01/23 07:14:53;;;;;;;4.05;3.15;;;;;;;0.52;50.19;96967.41;5067943;28;20092;-69
2023/01/23 07:17:19;;;;;;;5.72;3.85;;;;;;;0.25;51.10;96974.91;5073066;28;20061;-69
2023/01/23 07:19:44;;;;;;;5.68;3.75;;;;;;;0.28;51.27;96980.84;5068802;28;20090;-69
2023/01/23 07:22:10;;;;;;;4.25;3.40;;;;;;;0.51;52.65;96991.91;5073521;28;20722;-69
2023/01/23 07:24:35;;;;;;;5.13;3.65;;;;;;;0.66;52.14;96984.16;5069046;28;20105;-69
2023/01/23 07:27:00;;;;;;;3.83;3.08;;;;;;;0.25;48.67;96996.75;5073763;28;20342;-69
2023/01/23 07:29:26;;;;;;;4.53;3.10;;;;;;;0.43;50.97;96997.56;5073246;28;20089;-69
2023/01/23 07:31:51;;;;;;;4.05;3.13;;;;;;;0.72;50.55;97008.25;5068314;28;20101;-69
2023/01/23 07:34:17;;;;;;;4.15;3.13;;;;;;;0.36;51.24;97004.03;5068457;28;20357;-69
2023/01/23 07:36:42;;;;;;;4.55;3.35;;;;;;;0.55;54.39;97010.94;5071822;28;20099;-69
2023/01/23 07:39:08;;;;;;;4.97;3.45;;;;;;;0.56;52.25;97015.25;5069495;28;20634;-68
2023/01/23 07:41:33;;;;;;;4.47;3.25;;;;;;;0.80;51.85;97004.38;5071302;28;20082;-69
2023/01/23 07:43:58;;;;;;;4.60;3.40;;;;;;;0.67;50.62;97018.16;5069009;28;20100;-69
2023/01/23 07:46:25;;;;;;;3.38;2.70;;;;;;;0.76;51.16;97010.72;5071716;28;20081;-69
2023/01/23 07:48:51;;;;;;;4.35;3.10;;;;;;;0.47;47.82;97011.31;5065985;28;20162;-69
2023/01/23 07:51:16;;;;;;;4.13;3.25;;;;;;;0.79;51.14;97003.53;5068751;28;20597;-69
2023/01/23 07:53:42;;;;;;;3.90;3.08;;;;;;;0.83;50.42;97002.47;5066308;28;20568;-69
2023/01/23 07:56:07;;;;;;;4.75;3.40;;;;;;;1.07;52.37;97002.06;5066285;28;20131;-69
2023/01/23 07:58:32;;;;;;;6.05;3.60;;;;;;;0.89;49.75;97003.06;5068662;28;20129;-69
2023/01/23 08:00:58;;;;;;;4.13;3.15;;;;;;;0.73;50.04;97002.09;5063753;28;20459;-69
2023/01/23 08:03:27;;;;;;;5.45;3.70;;;;;;;0.92;49.92;97000.28;5067248;28;20115;-69
2023/01/23 08:05:52;;;;;;;8.10;5.32;;;;;;;1.04;51.15;97004.00;5066249;28;20543;-69
2023/01/23 08:08:18;;;;;;;10.23;6.18;;;;;;;1.26;49.58;97003.66;5066350;28;20102;-69
2023/01/23 08:10:43;;;;;;;12.82;7.93;;;;;;;1.34;49.12;97003.22;5064271;28;20097;-69
2023/01/23 08:13:09;;;;;;;12.05;7.90;;;;;;;1.30;51.31;97010.41;5063700;28;20585;-69
2023/01/23 08:15:36;;;;;;;13.50;8.93;;;;;;;1.17;50.50;97004.16;5065579;28;20503;-69
2023/01/23 08:18:01;;;;;;;12.13;7.75;;;;;;;1.45;50.54;97006.09;5065356;28;20148;-69
2023/01/23 08:20:27;;;;;;;11.00;7.95;;;;;;;1.36;50.36;97006.59;5064584;28;20089;-69
2023/01/23 08:22:52;;;;;;;10.77;6.97;;;;;;;1.33;50.60;97004.19;5067261;28;20336;-69
2023/01/23 08:25:18;;;;;;;9.30;5.80;;;;;;;1.29;48.56;97008.72;5065713;28;20089;-69
2023/01/23 08:27:43;;;;;;;12.50;7.22;;;;;;;1.53;46.77;97015.34;5063021;28;20118;-69
2023/01/23 08:30:09;;;;;;;9.77;6.43;;;;;;;1.39;47.64;97014.31;5061428;28;20083;-69
2023/01/23 08:32:35;;;;;;;12.88;7.90;;;;;;;1.53;50.10;97015.34;5065361;28;20473;-69
2023/01/23 08:35:00;;;;;;;13.18;8.32;;;;;;;1.57;48.61;97014.25;5068911;28;20100;-68
2023/01/23 08:37:25;;;;;;;15.15;9.13;;;;;;;1.90;50.19;97022.94;5068193;28;20546;-69
2023/01/23 08:39:51;;;;;;;15.15;10.02;;;;;;;1.98;49.56;97016.28;5069690;28;20775;-69
2023/01/23 08:42:16;;;;;;;14.07;9.00;;;;;;;2.18;49.58;97016.06;5068457;28;20113;-69
2023/01/23 08:44:41;;;;;;;13.50;8.90;;;;;;;2.35;48.57;97018.50;5063974;28;20075;-70
2023/01/23 08:47:07;;;;;;;12.23;8.25;;;;;;;2.51;47.35;97022.84;5066895;28;20308;-69
2023/01/23 08:49:32;;;;;;;9.75;6.63;;;;;;;2.22;46.27;97028.91;5067991;28;20081;-69
2023/01/23 08:51:58;;;;;;;9.43;5.70;;;;;;;2.24;43.84;97026.19;5067249;28;20423;-69
2023/01/23 08:54:24;;;;;;;14.15;8.55;;;;;;;2.29;46.67;97028.53;5062501;28;20108;-69
2023/01/23 08:56:49;;;;;;;13.02;8.85;;;;;;;2.52;47.18;97028.00;5069978;28;20074;-69
2023/01/23 08:59:15;;;;;;;14.57;9.70;;;;;;;2.49;45.68;97036.09;5066750;28;20453;-69
2023/01/23 09:01:40;;;;;;;12.15;8.07;;;;;;;2.18;45.50;97040.53;5067039;28;20367;-69
2023/01/23 09:04:06;;;;;;;12.40;7.30;;;;;;;2.34;44.53;97050.13;5065589;28;20337;-69
2023/01/23 09:06:31;;;;;;;9.23;5.70;;;;;;;2.21;43.43;97052.66;5069151;28;20154;-69
2023/01/23 09:08:56;;;;;;;9.98;5.72;;;;;;;1.66;43.61;97055.72;5067012;28;20499;-69
2023/01/23 09:11:22;;;;;;;11.32;7.22;;;;;;;1.55;45.28;97056.34;5066266;28;20168;-69
2023/01/23 09:13:48;;;;;;;13.55;8.68;;;;;;;1.74;47.05;97060.56;5065379;28;20073;-69
2023/01/23 09:16:13;;;;;;;10.75;6.47;;;;;;;1.68;44.28;97050.41;5067512;28;20136;-69
2023/01/23 09:18:39;;;;;;;14.82;10.43;;;;;;;1.72;48.79;97054.53;5066135;28;20102;-70
2023/01/23 09:21:06;;;;;;;12.57;8.50;;;;;;;1.93;46.18;97056.88;5065574;28;20104;-70
2023/01/23 09:23:31;;;;;;;12.57;7.38;;;;;;;1.31;44.53;97050.63;5064933;28;20106;-70
2023/01/23 09:26:02;;;;;;;14.73;9.88;;;;;;;1.28;45.84;97056.03;5062955;28;20127;-70
2023/01/23 09:28:27;;;;;;;11.13;6.60;;;;;;;1.11;45.03;97052.56;5071721;28;20462;-70
2023/01/23 09:30:53;;;;;;;16.85;9.68;;;;;;;0.94;47.36;97063.97;5069603;28;20699;-70
2023/01/23 09:33:23;;;;;;;18.52;11.13;;;;;;;0.91;48.10;97074.59;5066184;28;20088;-70
2023/01/23 09:35:51;;;;;;;20.05;12.18;;;;;;;1.07;47.79;97072.03;5067895;28;20123;-70
2023/01/23 09:38:17;;;;;;;30.25;21.45;;;;;;;1.59;50.10;97076.25;5063318;28;20092;-70
2023/01/23 09:40:47;;;;;;;29.80;20.98;;;;;;;1.84;48.88;97074.84;5067734;28;20543;-67
2023/01/23 09:43:15;;;;;;;26.85;18.40;;;;;;;1.79;47.89;97076.91;5049643;28;20185;-68
2023/01/23 09:45:43;;;;;;;31.60;22.20;;;;;;;2.17;49.35;97091.41;5067804;28;20519;-67
2023/01/23 09:48:21;;;;;;;27.60;18.38;;;;;;;1.71;45.83;97087.81;5068463;28;20147;-68
2023/01/23 09:51:22;;;;;;;27.25;18.20;;;;;;;2.01;48.87;97088.81;5065839;28;20104;-67
2023/01/23 09:53:48;;;;;;;28.67;20.33;;;;;;;2.11;48.97;97087.34;5063448;28;20556;-67
2023/01/23 09:56:29;;;;;;;38.78;25.20;;;;;;;2.42;47.88;97084.72;5070713;28;20106;-68
2023/01/23 09:58:59;;;;;;;29.17;17.17;;;;;;;2.08;44.55;97084.88;5065151;28;20247;-68
2023/01/23 10:01:25;;;;;;;23.27;14.60;;;;;;;2.07;45.76;97077.94;5067669;28;20068;-68
2023/01/23 10:03:51;;;;;;;29.77;20.52;;;;;;;2.24;48.70;97078.75;5045933;28;20127;-68
2023/01/23 10:06:27;;;;;;;31.92;22.45;;;;;;;2.21;46.90;97068.44;5064109;28;20127;-67
2023/01/23 10:09:11;;;;;;;23.40;14.10;;;;;;;2.11;44.62;97076.00;5070096;28;20772;-67
2023/01/23 10:11:58;;;;;;;28.80;17.35;;;;;;;2.65;45.81;97072.84;5068420;28;20102;-67
2023/01/23 10:15:01;;;;;;;16.52;9.73;;;;;;;2.61;43.00;97065.22;5066790;28;20448;-68
2023/01/23 10:17:32;;;;;;;31.45;19.85;;;;;;;2.50;45.73;97064.09;5071708;28;20593;-68
2023/01/23 10:20:38;;;;;;;18.25;11.60;;;;;;;2.56;45.34;97056.75;5065796;28;20089;-68
2023/01/23 10:23:29;;;;;;;23.95;16.63;;;;;;;2.84;44.94;97047.19;5064020;28;20277;-68
2023/01/23 10:25:54;;;;;;;24.98;17.88;;;;;;;3.07;44.78;97051.06;5068110;28;20127;-68
2023/01/23 10:28:39;;;;;;;16.50;10.23;;;;;;;2.83;42.90;97056.03;5075664;28;20104;-68
2023/01/23 10:31:09;;;;;;;16.45;10.10;;;;;;;2.74;42.01;97057.44;5068964;28;20149;-68
2023/01/23 10:33:48;;;;;;;25.55;18.02;;;;;;;2.98;44.35;97054.25;5068806;28;20104;-67
2023/01/23 10:36:16;;;;;;;;;;;;;;;3.04;44.05;97053.88;5065168;28;20098;-70
2023/01/23 10:38:48;;;;;;;18.40;11.98;;;;;;;2.84;42.65;97055.94;5069062;28;20344;-68
2023/01/23 10:41:18;;;;;;;24.80;16.75;;;;;;;2.96;44.96;97050.88;5052946;28;20070;-68
2023/01/23 10:43:45;;;;;;;32.95;22.95;;;;;;;3.25;44.67;97043.78;5070876;28;20087;-67
2023/01/23 10:46:29;;;;;;;30.60;21.50;;;;;;;3.67;44.06;97046.44;5069909;28;20568;-67
2023/01/23 10:48:54;;;;;;;36.55;23.58;;;;;;;3.87;43.53;97046.06;5067089;28;20380;-67
2023/01/23 10:51:36;;;;;;;29.92;21.13;;;;;;;3.79;41.68;97051.88;5064591;28;20094;-67
2023/01/23 10:54:12;;;;;;;25.10;17.45;;;;;;;3.94;42.24;97050.84;5070701;28;20076;-67
2023/01/23 10:56:46;;;;;;;24.00;17.42;;;;;;;3.85;42.70;97054.09;5067795;28;20480;-67
2023/01/23 10:59:47;;;;;;;26.00;18.42;;;;;;;4.14;44.35;97058.38;5073333;28;20105;-67
2023/01/23 11:02:12;;;;;;;15.30;11.02;;;;;;;4.06;40.96;97056.28;5068347;28;20076;-69
2023/01/23 11:04:38;;;;;;;30.30;22.17;;;;;;;4.17;43.05;97056.41;5065620;28;20094;-69
2023/01/23 11:07:22;;;;;;;27.45;18.05;;;;;;;4.07;42.17;97056.16;5067333;28;21085;-67
2023/01/23 11:09:57;;;;;;;25.27;18.20;;;;;;;4.15;42.76;97058.28;5068546;28;20378;-67
2023/01/23 11:12:22;;;;;;;32.40;23.25;;;;;;;4.34;42.97;97054.44;5067677;28;20429;-67
2023/01/23 11:14:48;;;;;;;29.33;20.92;;;;;;;4.54;43.01;97061.00;5069581;28;20261;-66
2023/01/23 11:17:23;;;;;;;26.58;16.45;;;;;;;4.41;40.49;97062.75;5075426;28;20050;-66
2023/01/23 11:19:52;;;;;;;26.75;17.65;;;;;;;4.63;41.45;97056.03;5070583;28;20609;-66
2023/01/23 11:22:26;;;;;;;32.30;23.55;;;;;;;4.35;43.60;97063.19;5069238;28;20085;-67
2023/01/23 11:24:52;;;;;;;31.88;23.30;;;;;;;4.76;42.64;97062.16;5071986;28;20169;-67
2023/01/23 11:27:26;;;;;;;34.15;24.85;;;;;;;5.01;42.44;97049.91;5069187;28;20709;-68
2023/01/23 11:30:07;;;;;;;26.38;19.40;;;;;;;5.04;41.74;97052.31;5070589;28;20172;-67
2023/01/23 11:32:32;;;;;;;36.97;24.92;;;;;;;5.08;40.89;97048.56;5066054;28;20489;-67
2023/01/23 11:35:12;;;;;;;33.70;24.42;;;;;;;5.28;40.98;97035.75;5066203;28;20216;-68
2023/01/23 11:37:38;;;;;;;23.90;17.10;;;;;;;4.96;39.01;97044.94;5069007;28;20571;-67
2023/01/23 11:40:15;;;;;;;15.30;10.48;;;;;;;4.96;38.35;97047.59;5059851;28;20076;-67
2023/01/23 11:42:41;;;;;;;39.30;27.52;;;;;;;5.24;40.33;97041.34;5067819;28;20454;-67
2023/01/23 11:45:28;;;;;;;26.08;18.17;;;;;;;5.44;39.03;97032.84;5070657;28;20042;-67